createdAt,value
2017-03-24T00:00:15.958Z,1020.09
2017-03-24T00:01:26.233Z,1020.05
2017-03-24T00:02:35.261Z,1020.1
2017-03-24T00:03:44.975Z,1020.1
2017-03-24T00:04:54.263Z,1020.11
2017-03-24T00:06:03.708Z,1020.06
2017-03-24T00:07:12.916Z,1020.07
2017-03-24T00:08:22.230Z,1020.09
2017-03-24T00:09:32.182Z,1020.09
2017-03-24T00:10:44.711Z,1020.06
2017-03-24T00:11:54.182Z,1020.08
2017-03-24T00:13:07.042Z,1020.03
2017-03-24T00:14:16.374Z,1020.03
2017-03-24T00:15:25.409Z,1020.06
2017-03-24T00:16:34.943Z,1020.03
2017-03-24T00:17:44.224Z,1020.05
2017-03-24T00:18:54.240Z,1020.01
2017-03-24T00:20:03.949Z,1020.01
2017-03-24T00:21:13.920Z,1020.01
2017-03-24T00:22:23.485Z,1020.03
2017-03-24T00:23:32.444Z,1019.98
2017-03-24T00:24:44.133Z,1020.04
2017-03-24T00:25:53.092Z,1020.02
2017-03-24T00:27:03.466Z,1020
2017-03-24T00:28:13.863Z,1020.01
2017-03-24T00:29:23.696Z,1020.03
2017-03-24T00:30:32.913Z,1020.04
2017-03-24T00:31:43.058Z,1020.1
2017-03-24T00:32:53.353Z,1020.16
2017-03-24T00:34:02.316Z,1020.17
2017-03-24T00:35:12.282Z,1020.15
2017-03-24T00:36:21.490Z,1020.19
2017-03-24T00:37:31.100Z,1020.23
2017-03-24T00:38:40.063Z,1020.25
2017-03-24T00:39:50.052Z,1020.24
2017-03-24T00:40:59.392Z,1020.22
2017-03-24T00:42:10.214Z,1020.27
2017-03-24T00:43:19.173Z,1020.31
2017-03-24T00:44:29.057Z,1020.3
2017-03-24T00:45:38.340Z,1020.29
2017-03-24T00:46:48.839Z,1020.32
2017-03-24T00:47:59.096Z,1020.27
2017-03-24T00:49:09.260Z,1020.29
2017-03-24T00:50:18.647Z,1020.28
2017-03-24T00:51:29.609Z,1020.28
2017-03-24T00:52:39.714Z,1020.29
2017-03-24T00:53:49.177Z,1020.26
2017-03-24T00:54:58.941Z,1020.27
2017-03-24T00:56:07.901Z,1020.27
2017-03-24T00:57:17.947Z,1020.3
2017-03-24T00:58:26.902Z,1020.29
2017-03-24T00:59:38.241Z,1020.35
2017-03-24T01:00:47.197Z,1020.34
2017-03-24T01:01:56.159Z,1020.34
2017-03-24T01:03:06.777Z,1020.36
2017-03-24T01:04:16.850Z,1020.35
2017-03-24T01:05:26.796Z,1020.39
2017-03-24T01:06:36.018Z,1020.36
2017-03-24T01:07:45.067Z,1020.38
2017-03-24T01:08:54.021Z,1020.35
2017-03-24T01:10:03.549Z,1020.38
2017-03-24T01:11:12.759Z,1020.38
2017-03-24T01:12:21.804Z,1020.39
2017-03-24T01:13:31.247Z,1020.42
2017-03-24T01:14:40.248Z,1020.42
2017-03-24T01:15:49.839Z,1020.45
2017-03-24T01:16:59.217Z,1020.44
2017-03-24T01:18:08.748Z,1020.44
2017-03-24T01:19:17.713Z,1020.49
2017-03-24T01:20:27.894Z,1020.5
2017-03-24T01:21:37.737Z,1020.47
2017-03-24T01:22:47.032Z,1020.51
2017-03-24T01:23:56.899Z,1020.53
2017-03-24T01:25:05.864Z,1020.52
2017-03-24T01:26:15.941Z,1020.51
2017-03-24T01:27:25.553Z,1020.51
2017-03-24T01:28:34.765Z,1020.52
2017-03-24T01:29:44.681Z,1020.54
2017-03-24T01:30:53.640Z,1020.5
2017-03-24T01:32:03.580Z,1020.53
2017-03-24T01:33:12.534Z,1020.47
2017-03-24T01:34:23.088Z,1020.52
2017-03-24T01:35:32.653Z,1020.54
2017-03-24T01:36:41.611Z,1020.55
2017-03-24T01:37:51.871Z,1020.6
2017-03-24T01:39:00.900Z,1020.67
2017-03-24T01:40:12.357Z,1020.68
2017-03-24T01:41:21.312Z,1020.67
2017-03-24T01:42:31.224Z,1020.69
2017-03-24T01:43:40.189Z,1020.7
2017-03-24T01:44:50.588Z,1020.74
2017-03-24T01:46:01.362Z,1020.76
2017-03-24T01:47:11.691Z,1020.76
2017-03-24T01:48:22.977Z,1020.78
2017-03-24T01:49:32.698Z,1020.81
2017-03-24T01:50:43.262Z,1020.84
2017-03-24T01:51:53.237Z,1020.82
2017-03-24T01:53:02.292Z,1020.83
2017-03-24T01:54:11.801Z,1020.83
2017-03-24T01:55:20.763Z,1020.84
2017-03-24T01:56:31.039Z,1020.85
2017-03-24T01:57:40.669Z,1020.87
2017-03-24T01:58:49.908Z,1020.88
2017-03-24T01:59:59.982Z,1020.93
2017-03-24T02:01:09.234Z,1020.94
2017-03-24T02:02:18.209Z,1020.91
2017-03-24T02:03:28.210Z,1020.99
2017-03-24T02:04:38.274Z,1020.96
2017-03-24T02:05:47.232Z,1020.97
2017-03-24T02:06:57.805Z,1021.01
2017-03-24T02:08:07.497Z,1021.03
2017-03-24T02:09:16.707Z,1021.03
2017-03-24T02:10:25.672Z,1021.07
2017-03-24T02:11:34.633Z,1021.06
2017-03-24T02:12:43.593Z,1021.11
2017-03-24T02:13:52.557Z,1021.13
2017-03-24T02:15:01.775Z,1021.15
2017-03-24T02:16:10.730Z,1021.17
2017-03-24T02:17:19.688Z,1021.21
2017-03-24T02:18:28.649Z,1021.19
2017-03-24T02:19:37.612Z,1021.2
2017-03-24T02:20:46.908Z,1021.21
2017-03-24T02:21:56.188Z,1021.22
2017-03-24T02:23:05.149Z,1021.27
2017-03-24T02:24:14.114Z,1021.3
2017-03-24T02:25:23.078Z,1021.36
2017-03-24T02:26:32.290Z,1021.37
2017-03-24T02:27:41.245Z,1021.37
2017-03-24T02:28:50.207Z,1021.36
2017-03-24T02:29:59.583Z,1021.36
2017-03-24T02:31:08.627Z,1021.34
2017-03-24T02:32:17.832Z,1021.36
2017-03-24T02:33:26.788Z,1021.34
2017-03-24T02:34:35.742Z,1021.34
2017-03-24T02:35:44.702Z,1021.37
2017-03-24T02:36:53.696Z,1021.4
2017-03-24T02:38:02.998Z,1021.37
2017-03-24T02:39:12.096Z,1021.36
2017-03-24T02:40:21.068Z,1021.37
2017-03-24T02:41:30.022Z,1021.4
2017-03-24T02:42:38.979Z,1021.42
2017-03-24T02:43:48.193Z,1021.42
2017-03-24T02:44:57.151Z,1021.43
2017-03-24T02:46:06.113Z,1021.45
2017-03-24T02:47:15.064Z,1021.44
2017-03-24T02:48:24.023Z,1021.42
2017-03-24T02:49:33.235Z,1021.43
2017-03-24T02:50:42.189Z,1021.5
2017-03-24T02:51:51.230Z,1021.48
2017-03-24T02:53:00.185Z,1021.55
2017-03-24T02:54:09.151Z,1021.5
2017-03-24T02:55:18.364Z,1021.53
2017-03-24T02:56:27.320Z,1021.53
2017-03-24T02:57:36.279Z,1021.55
2017-03-24T02:58:45.253Z,1021.56
2017-03-24T02:59:54.211Z,1021.56
2017-03-24T03:01:03.748Z,1021.61
2017-03-24T03:02:12.705Z,1021.62
2017-03-24T03:03:21.666Z,1021.64
2017-03-24T03:04:30.614Z,1021.62
2017-03-24T03:05:39.573Z,1021.7
2017-03-24T03:06:48.819Z,1021.68
2017-03-24T03:07:57.775Z,1021.7
2017-03-24T03:09:06.737Z,1021.73
2017-03-24T03:10:16.112Z,1021.77
2017-03-24T03:11:25.066Z,1021.79
2017-03-24T03:12:34.265Z,1021.77
2017-03-24T03:13:43.229Z,1021.79
2017-03-24T03:14:52.602Z,1021.79
2017-03-24T03:16:01.562Z,1021.79
2017-03-24T03:17:10.516Z,1021.81
2017-03-24T03:18:20.041Z,1021.8
2017-03-24T03:19:29.007Z,1021.86
2017-03-24T03:20:37.970Z,1021.84
2017-03-24T03:21:46.930Z,1021.86
2017-03-24T03:22:56.010Z,1021.85
2017-03-24T03:24:05.218Z,1021.87
2017-03-24T03:25:14.175Z,1021.9
2017-03-24T03:26:23.131Z,1021.94
2017-03-24T03:27:32.090Z,1021.95
2017-03-24T03:28:41.059Z,1021.94
2017-03-24T03:29:50.273Z,1021.97
2017-03-24T03:30:59.382Z,1022.05
2017-03-24T03:32:08.340Z,1022
2017-03-24T03:33:17.342Z,1022.03
2017-03-24T03:34:26.304Z,1022.05
2017-03-24T03:35:35.501Z,1022.06
2017-03-24T03:36:44.455Z,1022.1
2017-03-24T03:37:53.730Z,1022.1
2017-03-24T03:39:02.782Z,1022.11
2017-03-24T03:40:11.746Z,1022.15
2017-03-24T03:41:20.949Z,1022.18
2017-03-24T03:42:29.899Z,1022.15
2017-03-24T03:43:38.944Z,1022.16
2017-03-24T03:44:47.908Z,1022.15
2017-03-24T03:45:56.863Z,1022.16
2017-03-24T03:47:06.071Z,1022.2
2017-03-24T03:48:15.030Z,1022.26
2017-03-24T03:49:23.990Z,1022.21
2017-03-24T03:50:32.944Z,1022.23
2017-03-24T03:51:41.901Z,1022.24
2017-03-24T03:52:51.108Z,1022.28
2017-03-24T03:54:00.078Z,1022.28
2017-03-24T03:55:09.035Z,1022.31
2017-03-24T03:56:17.992Z,1022.31
2017-03-24T03:57:26.942Z,1022.37
2017-03-24T03:58:36.152Z,1022.4
2017-03-24T03:59:45.115Z,1022.45
2017-03-24T04:00:54.072Z,1022.5
2017-03-24T04:02:03.023Z,1022.52
2017-03-24T04:03:11.981Z,1022.52
2017-03-24T04:04:21.187Z,1022.54
2017-03-24T04:05:30.485Z,1022.54
2017-03-24T04:06:39.437Z,1022.57
2017-03-24T04:07:48.387Z,1022.57
2017-03-24T04:08:57.669Z,1022.56
2017-03-24T04:10:06.882Z,1022.56
2017-03-24T04:11:15.834Z,1022.59
2017-03-24T04:12:24.779Z,1022.58
2017-03-24T04:13:33.741Z,1022.6
2017-03-24T04:14:42.698Z,1022.6
2017-03-24T04:15:51.910Z,1022.58
2017-03-24T04:17:00.871Z,1022.61
2017-03-24T04:18:09.830Z,1022.62
2017-03-24T04:19:18.798Z,1022.63
2017-03-24T04:20:27.759Z,1022.63
2017-03-24T04:21:36.963Z,1022.64
2017-03-24T04:22:46.002Z,1022.62
2017-03-24T04:23:54.968Z,1022.59
2017-03-24T04:25:03.926Z,1022.63
2017-03-24T04:26:12.878Z,1022.59
2017-03-24T04:27:22.169Z,1022.61
2017-03-24T04:28:31.126Z,1022.63
2017-03-24T04:29:40.086Z,1022.66
2017-03-24T04:30:49.038Z,1022.66
2017-03-24T04:31:57.996Z,1022.66
2017-03-24T04:33:07.249Z,1022.69
2017-03-24T04:34:16.225Z,1022.76
2017-03-24T04:35:25.189Z,1022.74
2017-03-24T04:36:34.146Z,1022.78
2017-03-24T04:37:43.097Z,1022.8
2017-03-24T04:38:52.356Z,1022.77
2017-03-24T04:40:01.318Z,1022.75
2017-03-24T04:41:10.358Z,1022.77
2017-03-24T04:42:19.356Z,1022.79
2017-03-24T04:43:28.310Z,1022.82
2017-03-24T04:44:37.616Z,1022.85
2017-03-24T04:45:46.573Z,1022.88
2017-03-24T04:46:55.522Z,1022.94
2017-03-24T04:48:04.474Z,1022.95
2017-03-24T04:49:13.439Z,1022.97
2017-03-24T04:50:22.644Z,1022.97
2017-03-24T04:51:31.600Z,1023.03
2017-03-24T04:52:40.563Z,1023.02
2017-03-24T04:53:49.520Z,1023.04
2017-03-24T04:54:58.472Z,1023.08
2017-03-24T04:56:07.687Z,1023.1
2017-03-24T04:57:16.636Z,1023.12
2017-03-24T04:58:25.590Z,1023.17
2017-03-24T04:59:34.539Z,1023.2
2017-03-24T05:00:43.491Z,1023.21
2017-03-24T05:01:52.835Z,1023.23
2017-03-24T05:03:01.878Z,1023.28
2017-03-24T05:04:10.837Z,1023.3
2017-03-24T05:05:19.800Z,1023.29
2017-03-24T05:06:28.752Z,1023.32
2017-03-24T05:07:38.341Z,1023.33
2017-03-24T05:08:47.303Z,1023.37
2017-03-24T05:09:56.270Z,1023.42
2017-03-24T05:11:05.226Z,1023.47
2017-03-24T05:12:14.183Z,1023.5
2017-03-24T05:13:23.432Z,1023.53
2017-03-24T05:14:32.400Z,1023.52
2017-03-24T05:15:41.360Z,1023.57
2017-03-24T05:16:50.314Z,1023.59
2017-03-24T05:17:59.271Z,1023.67
2017-03-24T05:19:08.535Z,1023.66
2017-03-24T05:20:17.498Z,1023.66
2017-03-24T05:21:26.462Z,1023.73
2017-03-24T05:22:35.805Z,1023.78
2017-03-24T05:23:44.764Z,1023.8
2017-03-24T05:24:54.357Z,1023.82
2017-03-24T05:26:03.312Z,1023.87
2017-03-24T05:27:12.265Z,1023.87
2017-03-24T05:28:21.543Z,1023.88
2017-03-24T05:29:30.588Z,1023.96
2017-03-24T05:30:39.840Z,1023.91
2017-03-24T05:31:48.790Z,1023.9
2017-03-24T05:32:57.746Z,1023.91
2017-03-24T05:34:06.708Z,1023.93
2017-03-24T05:35:15.670Z,1023.93
2017-03-24T05:36:24.931Z,1023.92
2017-03-24T05:37:33.881Z,1023.92
2017-03-24T05:38:42.848Z,1023.98
2017-03-24T05:39:51.809Z,1023.98
2017-03-24T05:41:00.861Z,1023.99
2017-03-24T05:42:10.064Z,1023.99
2017-03-24T05:43:19.019Z,1024.07
2017-03-24T05:44:27.975Z,1024.1
2017-03-24T05:45:36.934Z,1024.11
2017-03-24T05:46:45.888Z,1024.13
2017-03-24T05:47:55.185Z,1024.17
2017-03-24T05:49:04.161Z,1024.23
2017-03-24T05:50:13.779Z,1024.24
2017-03-24T05:51:22.734Z,1024.26
2017-03-24T05:52:31.689Z,1024.3
2017-03-24T05:53:40.950Z,1024.29
2017-03-24T05:54:49.907Z,1024.32
2017-03-24T05:55:58.868Z,1024.31
2017-03-24T05:57:07.828Z,1024.32
2017-03-24T05:58:16.787Z,1024.34
2017-03-24T05:59:26.058Z,1024.36
2017-03-24T06:00:35.030Z,1024.34
2017-03-24T06:01:43.979Z,1024.37
2017-03-24T06:02:52.936Z,1024.44
2017-03-24T06:04:01.902Z,1024.48
2017-03-24T06:05:11.176Z,1024.53
2017-03-24T06:06:20.140Z,1024.52
2017-03-24T06:07:29.133Z,1024.56
2017-03-24T06:08:38.096Z,1024.55
2017-03-24T06:09:47.055Z,1024.57
2017-03-24T06:10:56.314Z,1024.61
2017-03-24T06:12:05.271Z,1024.63
2017-03-24T06:13:14.230Z,1024.66
2017-03-24T06:14:23.194Z,1024.65
2017-03-24T06:15:32.148Z,1024.68
2017-03-24T06:16:41.399Z,1024.69
2017-03-24T06:17:50.360Z,1024.69
2017-03-24T06:18:59.378Z,1024.66
2017-03-24T06:20:08.511Z,1024.71
2017-03-24T06:21:17.464Z,1024.76
2017-03-24T06:22:26.718Z,1024.76
2017-03-24T06:23:35.677Z,1024.76
2017-03-24T06:24:44.770Z,1024.76
2017-03-24T06:25:53.740Z,1024.8
2017-03-24T06:27:02.794Z,1024.82
2017-03-24T06:28:12.958Z,1024.88
2017-03-24T06:29:28.446Z,1024.91
2017-03-24T06:30:37.453Z,1024.99
2017-03-24T06:31:46.648Z,1024.95
2017-03-24T06:32:55.605Z,1024.98
2017-03-24T06:34:05.008Z,1024.95
2017-03-24T06:35:14.077Z,1025
2017-03-24T06:36:23.156Z,1025.03
2017-03-24T06:37:32.288Z,1025.04
2017-03-24T06:38:41.325Z,1025.02
2017-03-24T06:39:50.584Z,1025.02
2017-03-24T06:40:59.543Z,1025.04
2017-03-24T06:42:08.505Z,1025.06
2017-03-24T06:43:17.609Z,1025.07
2017-03-24T06:44:26.613Z,1025.1
2017-03-24T06:45:35.946Z,1025.11
2017-03-24T06:46:44.992Z,1025.14
2017-03-24T06:47:54.084Z,1025.18
2017-03-24T06:49:03.181Z,1025.19
2017-03-24T06:50:12.305Z,1025.2
2017-03-24T06:51:21.584Z,1025.2
2017-03-24T06:52:30.682Z,1025.26
2017-03-24T06:53:39.798Z,1025.27
2017-03-24T06:54:48.755Z,1025.3
2017-03-24T06:55:57.865Z,1025.29
2017-03-24T06:57:07.150Z,1025.29
2017-03-24T06:58:16.192Z,1025.34
2017-03-24T06:59:25.153Z,1025.33
2017-03-24T07:00:34.233Z,1025.34
2017-03-24T07:01:43.391Z,1025.34
2017-03-24T07:02:53.289Z,1025.34
2017-03-24T07:04:02.259Z,1025.36
2017-03-24T07:05:11.275Z,1025.37
2017-03-24T07:06:20.420Z,1025.35
2017-03-24T07:07:29.424Z,1025.37
2017-03-24T07:08:38.781Z,1025.36
2017-03-24T07:09:47.758Z,1025.4
2017-03-24T07:10:56.744Z,1025.38
2017-03-24T07:12:05.778Z,1025.37
2017-03-24T07:13:14.734Z,1025.38
2017-03-24T07:14:24.096Z,1025.35
2017-03-24T07:15:33.142Z,1025.33
2017-03-24T07:16:42.163Z,1025.35
2017-03-24T07:17:51.175Z,1025.37
2017-03-24T07:19:00.185Z,1025.39
2017-03-24T07:20:09.448Z,1025.34
2017-03-24T07:21:18.404Z,1025.35
2017-03-24T07:22:27.589Z,1025.34
2017-03-24T07:23:36.546Z,1025.29
2017-03-24T07:24:45.519Z,1025.31
2017-03-24T07:25:54.876Z,1025.34
2017-03-24T07:27:03.906Z,1025.39
2017-03-24T07:28:12.868Z,1025.43
2017-03-24T07:29:21.830Z,1025.41
2017-03-24T07:30:30.873Z,1025.34
2017-03-24T07:31:40.791Z,1025.41
2017-03-24T07:32:49.804Z,1025.38
2017-03-24T07:33:58.789Z,1025.42
2017-03-24T07:35:07.877Z,1025.46
2017-03-24T07:36:17.010Z,1025.5
2017-03-24T07:37:26.426Z,1025.46
2017-03-24T07:38:35.389Z,1025.54
2017-03-24T07:39:44.350Z,1025.53
2017-03-24T07:40:53.329Z,1025.53
2017-03-24T07:42:02.385Z,1025.55
2017-03-24T07:43:11.594Z,1025.61
2017-03-24T07:44:20.660Z,1025.64
2017-03-24T07:45:29.771Z,1025.64
2017-03-24T07:46:38.928Z,1025.62
2017-03-24T07:47:47.915Z,1025.7
2017-03-24T07:48:57.123Z,1025.67
2017-03-24T07:50:06.250Z,1025.68
2017-03-24T07:51:15.322Z,1025.71
2017-03-24T07:52:24.475Z,1025.64
2017-03-24T07:53:33.435Z,1025.7
2017-03-24T07:54:42.696Z,1025.69
2017-03-24T07:55:51.660Z,1025.72
2017-03-24T07:57:00.610Z,1025.74
2017-03-24T07:58:09.570Z,1025.74
2017-03-24T07:59:18.524Z,1025.78
2017-03-24T08:00:27.820Z,1025.77
2017-03-24T08:01:37.096Z,1025.8
2017-03-24T08:02:46.052Z,1025.83
2017-03-24T08:03:55.104Z,1025.8
2017-03-24T08:05:04.377Z,1025.78
2017-03-24T08:06:13.748Z,1025.71
2017-03-24T08:07:22.983Z,1025.76
2017-03-24T08:08:31.951Z,1025.73
2017-03-24T08:09:40.901Z,1025.72
2017-03-24T08:10:49.858Z,1025.71
2017-03-24T08:11:59.064Z,1025.73
2017-03-24T08:13:08.017Z,1025.74
2017-03-24T08:14:16.971Z,1025.73
2017-03-24T08:15:25.919Z,1025.71
2017-03-24T08:16:34.876Z,1025.74
2017-03-24T08:17:44.225Z,1025.75
2017-03-24T08:18:53.172Z,1025.71
2017-03-24T08:20:02.160Z,1025.74
2017-03-24T08:21:11.122Z,1025.69
2017-03-24T08:22:20.074Z,1025.75
2017-03-24T08:23:29.371Z,1025.76
2017-03-24T08:24:38.333Z,1025.75
2017-03-24T08:25:47.381Z,1025.78
2017-03-24T08:26:56.335Z,1025.77
2017-03-24T08:28:05.299Z,1025.77
2017-03-24T08:29:14.503Z,1025.77
2017-03-24T08:30:23.547Z,1025.79
2017-03-24T08:31:32.588Z,1025.8
2017-03-24T08:32:41.552Z,1025.82
2017-03-24T08:33:50.504Z,1025.81
2017-03-24T08:34:59.756Z,1025.85
2017-03-24T08:36:08.712Z,1025.77
2017-03-24T08:37:17.672Z,1025.87
2017-03-24T08:38:26.627Z,1025.83
2017-03-24T08:39:35.576Z,1025.92
2017-03-24T08:40:44.831Z,1025.84
2017-03-24T08:41:53.870Z,1025.87
2017-03-24T08:43:04.131Z,1025.86
2017-03-24T08:44:13.092Z,1025.81
2017-03-24T08:45:22.044Z,1025.8
2017-03-24T08:46:31.343Z,1025.77
2017-03-24T08:47:40.417Z,1025.73
2017-03-24T08:48:49.369Z,1025.7
2017-03-24T08:49:58.411Z,1025.75
2017-03-24T08:51:07.469Z,1025.77
2017-03-24T08:52:16.812Z,1025.8
2017-03-24T08:53:25.773Z,1025.76
2017-03-24T08:54:34.809Z,1025.77
2017-03-24T08:55:43.831Z,1025.76
2017-03-24T08:56:52.973Z,1025.77
2017-03-24T08:58:02.287Z,1025.79
2017-03-24T08:59:11.318Z,1025.85
2017-03-24T09:00:20.325Z,1025.84
2017-03-24T09:01:29.327Z,1025.84
2017-03-24T09:02:38.458Z,1025.84
2017-03-24T09:03:47.755Z,1025.86
2017-03-24T09:04:56.708Z,1025.9
2017-03-24T09:06:05.755Z,1025.9
2017-03-24T09:07:14.794Z,1025.88
2017-03-24T09:08:23.870Z,1025.9
2017-03-24T09:09:33.156Z,1025.89
2017-03-24T09:10:42.145Z,1025.89
2017-03-24T09:11:51.199Z,1025.92
2017-03-24T09:13:00.192Z,1025.91
2017-03-24T09:14:09.771Z,1025.88
2017-03-24T09:15:19.754Z,1025.92
2017-03-24T09:16:29.122Z,1025.87
2017-03-24T09:17:38.160Z,1025.81
2017-03-24T09:18:47.247Z,1025.82
2017-03-24T09:19:56.199Z,1025.88
2017-03-24T09:21:05.448Z,1025.9
2017-03-24T09:22:14.407Z,1025.92
2017-03-24T09:23:23.366Z,1025.92
2017-03-24T09:24:32.330Z,1025.91
2017-03-24T09:25:41.286Z,1025.92
2017-03-24T09:26:50.582Z,1025.97
2017-03-24T09:27:59.672Z,1025.93
2017-03-24T09:29:08.637Z,1025.92
2017-03-24T09:30:17.594Z,1025.93
2017-03-24T09:31:26.568Z,1025.92
2017-03-24T09:32:35.977Z,1025.98
2017-03-24T09:33:44.933Z,1025.98
2017-03-24T09:34:53.920Z,1026.01
2017-03-24T09:36:02.975Z,1025.98
2017-03-24T09:37:11.935Z,1026.04
2017-03-24T09:38:21.240Z,1026.06
2017-03-24T09:39:30.448Z,1026.08
2017-03-24T09:40:39.500Z,1026.05
2017-03-24T09:41:48.625Z,1026.08
2017-03-24T09:42:57.745Z,1026.05
2017-03-24T09:44:07.930Z,1026.09
2017-03-24T09:45:18.985Z,1026.04
2017-03-24T09:46:28.040Z,1026.05
2017-03-24T09:47:37.100Z,1026.04
2017-03-24T09:48:46.049Z,1026.02
2017-03-24T09:49:55.247Z,1026.05
2017-03-24T09:51:04.227Z,1026.05
2017-03-24T09:52:13.232Z,1026.02
2017-03-24T09:53:22.905Z,1026.02
2017-03-24T09:54:33.668Z,1026.02
2017-03-24T09:55:43.514Z,1026.04
2017-03-24T09:56:52.985Z,1026.03
2017-03-24T09:58:02.125Z,1026.01
2017-03-24T09:59:12.710Z,1026.01
2017-03-24T10:00:26.607Z,1026.04
2017-03-24T10:01:36.419Z,1026
2017-03-24T10:02:45.587Z,1025.98
2017-03-24T10:03:54.815Z,1025.96
2017-03-24T10:05:03.825Z,1025.93
2017-03-24T10:06:12.805Z,1025.97
2017-03-24T10:07:22.060Z,1026
2017-03-24T10:08:31.013Z,1025.96
2017-03-24T10:09:40.442Z,1026.02
2017-03-24T10:10:49.471Z,1026
2017-03-24T10:11:58.424Z,1026.01
2017-03-24T10:13:07.682Z,1026.04
2017-03-24T10:14:16.643Z,1026.09
2017-03-24T10:15:25.637Z,1026.14
2017-03-24T10:16:34.598Z,1026.14
2017-03-24T10:17:43.561Z,1026.19
2017-03-24T10:18:52.766Z,1026.17
2017-03-24T10:20:01.729Z,1026.18
2017-03-24T10:21:10.688Z,1026.19
2017-03-24T10:22:19.644Z,1026.19
2017-03-24T10:23:28.601Z,1026.2
2017-03-24T10:24:37.862Z,1026.2
2017-03-24T10:25:46.850Z,1026.18
2017-03-24T10:26:55.831Z,1026.16
2017-03-24T10:28:04.854Z,1026.21
2017-03-24T10:29:13.844Z,1026.15
2017-03-24T10:30:23.254Z,1026.18
2017-03-24T10:31:32.296Z,1026.19
2017-03-24T10:32:41.324Z,1026.22
2017-03-24T10:33:50.280Z,1026.25
2017-03-24T10:34:59.238Z,1026.16
2017-03-24T10:36:08.497Z,1026.27
2017-03-24T10:37:17.457Z,1026.34
2017-03-24T10:38:26.420Z,1026.36
2017-03-24T10:39:35.376Z,1026.4
2017-03-24T10:40:44.325Z,1026.39
2017-03-24T10:41:53.579Z,1026.34
2017-03-24T10:43:02.620Z,1026.39
2017-03-24T10:44:11.576Z,1026.39
2017-03-24T10:45:20.530Z,1026.36
2017-03-24T10:46:29.489Z,1026.37
2017-03-24T10:47:38.702Z,1026.37
2017-03-24T10:48:47.664Z,1026.39
2017-03-24T10:49:56.616Z,1026.39
2017-03-24T10:51:05.566Z,1026.37
2017-03-24T10:52:14.639Z,1026.35
2017-03-24T10:53:24.041Z,1026.36
2017-03-24T10:54:33.038Z,1026.33
2017-03-24T10:55:42.335Z,1026.38
2017-03-24T10:56:51.288Z,1026.43
2017-03-24T10:58:00.248Z,1026.38
2017-03-24T10:59:09.455Z,1026.39
2017-03-24T11:00:18.410Z,1026.4
2017-03-24T11:01:27.405Z,1026.37
2017-03-24T11:02:36.360Z,1026.43
2017-03-24T11:03:45.320Z,1026.4
2017-03-24T11:04:54.528Z,1026.39
2017-03-24T11:06:03.487Z,1026.42
2017-03-24T11:07:12.447Z,1026.41
2017-03-24T11:08:21.401Z,1026.43
2017-03-24T11:09:30.387Z,1026.4
2017-03-24T11:10:39.597Z,1026.44
2017-03-24T11:11:48.646Z,1026.45
2017-03-24T11:12:57.605Z,1026.46
2017-03-24T11:14:06.563Z,1026.47
2017-03-24T11:15:15.522Z,1026.48
2017-03-24T11:16:24.728Z,1026.57
2017-03-24T11:17:33.687Z,1026.56
2017-03-24T11:18:42.641Z,1026.56
2017-03-24T11:19:51.593Z,1026.58
2017-03-24T11:21:00.548Z,1026.58
2017-03-24T11:22:09.806Z,1026.58
2017-03-24T11:23:18.761Z,1026.6
2017-03-24T11:24:27.721Z,1026.55
2017-03-24T11:25:36.676Z,1026.56
2017-03-24T11:26:45.635Z,1026.59
2017-03-24T11:27:54.836Z,1026.56
2017-03-24T11:29:03.787Z,1026.59
2017-03-24T11:30:12.743Z,1026.57
2017-03-24T11:31:21.697Z,1026.51
2017-03-24T11:32:30.654Z,1026.52
2017-03-24T11:33:39.860Z,1026.56
2017-03-24T11:34:48.816Z,1026.58
2017-03-24T11:35:57.765Z,1026.58
2017-03-24T11:37:06.723Z,1026.53
2017-03-24T11:38:15.679Z,1026.54
2017-03-24T11:39:24.923Z,1026.52
2017-03-24T11:40:33.878Z,1026.53
2017-03-24T11:41:42.834Z,1026.54
2017-03-24T11:42:51.790Z,1026.52
2017-03-24T11:44:01.068Z,1026.58
2017-03-24T11:45:10.324Z,1026.54
2017-03-24T11:46:19.278Z,1026.6
2017-03-24T11:47:28.320Z,1026.57
2017-03-24T11:48:37.276Z,1026.59
2017-03-24T11:49:46.225Z,1026.5
2017-03-24T11:50:55.479Z,1026.5
2017-03-24T11:52:04.433Z,1026.57
2017-03-24T11:53:13.392Z,1026.57
2017-03-24T11:54:22.344Z,1026.5
2017-03-24T11:55:31.316Z,1026.52
2017-03-24T11:56:40.525Z,1026.54
2017-03-24T11:57:49.479Z,1026.52
2017-03-24T11:58:58.439Z,1026.47
2017-03-24T12:00:07.404Z,1026.47
2017-03-24T12:01:16.366Z,1026.52
2017-03-24T12:02:25.629Z,1026.48
2017-03-24T12:03:34.585Z,1026.47
2017-03-24T12:04:43.538Z,1026.46
2017-03-24T12:05:52.500Z,1026.48
2017-03-24T12:07:01.461Z,1026.46
2017-03-24T12:08:10.910Z,1026.47
2017-03-24T12:09:20.064Z,1026.44
2017-03-24T12:10:29.022Z,1026.49
2017-03-24T12:11:37.981Z,1026.49
2017-03-24T12:12:46.941Z,1026.45
2017-03-24T12:13:56.197Z,1026.46
2017-03-24T12:15:05.157Z,1026.43
2017-03-24T12:16:14.115Z,1026.44
2017-03-24T12:17:23.081Z,1026.41
2017-03-24T12:18:32.034Z,1026.37
2017-03-24T12:19:41.382Z,1026.39
2017-03-24T12:20:50.335Z,1026.28
2017-03-24T12:21:59.289Z,1026.28
2017-03-24T12:23:08.437Z,1026.28
2017-03-24T12:24:17.472Z,1026.29
2017-03-24T12:25:26.824Z,1026.3
2017-03-24T12:26:35.960Z,1026.25
2017-03-24T12:27:45.043Z,1026.29
2017-03-24T12:28:54.001Z,1026.32
2017-03-24T12:30:02.955Z,1026.3
2017-03-24T12:31:12.776Z,1026.32
2017-03-24T12:32:21.739Z,1026.3
2017-03-24T12:33:30.697Z,1026.29
2017-03-24T12:34:39.655Z,1026.26
2017-03-24T12:35:48.613Z,1026.23
2017-03-24T12:36:57.874Z,1026.26
2017-03-24T12:38:06.835Z,1026.23
2017-03-24T12:39:15.792Z,1026.21
2017-03-24T12:40:24.837Z,1026.22
2017-03-24T12:41:33.794Z,1026.18
2017-03-24T12:42:43.007Z,1026.19
2017-03-24T12:43:51.971Z,1026.18
2017-03-24T12:45:00.928Z,1026.15
2017-03-24T12:46:09.887Z,1026.12
2017-03-24T12:47:18.853Z,1026.17
2017-03-24T12:48:28.110Z,1026.18
2017-03-24T12:49:37.162Z,1026.12
2017-03-24T12:50:46.118Z,1026.13
2017-03-24T12:51:55.088Z,1026.16
2017-03-24T12:53:04.044Z,1026.17
2017-03-24T12:54:13.257Z,1026.15
2017-03-24T12:55:22.220Z,1026.14
2017-03-24T12:56:31.270Z,1026.18
2017-03-24T12:57:40.561Z,1026.15
2017-03-24T12:58:49.520Z,1026.11
2017-03-24T12:59:58.874Z,1026.1
2017-03-24T13:01:08.146Z,1026.09
2017-03-24T13:02:17.139Z,1026.13
2017-03-24T13:03:26.101Z,1026.14
2017-03-24T13:04:35.058Z,1026.16
2017-03-24T13:05:44.321Z,1026.19
2017-03-24T13:06:53.287Z,1026.16
2017-03-24T13:08:02.339Z,1026.14
2017-03-24T13:09:11.302Z,1026.17
2017-03-24T13:10:20.348Z,1026.15
2017-03-24T13:11:29.833Z,1026.16
2017-03-24T13:12:39.234Z,1026.17
2017-03-24T13:13:48.212Z,1026.16
2017-03-24T13:14:57.264Z,1026.16
2017-03-24T13:16:06.221Z,1026.11
2017-03-24T13:17:15.510Z,1026.08
2017-03-24T13:18:24.642Z,1026.11
2017-03-24T13:19:33.724Z,1026.07
2017-03-24T13:20:42.834Z,1026.05
2017-03-24T13:21:51.875Z,1026.05
2017-03-24T13:23:01.136Z,1026.08
2017-03-24T13:24:10.101Z,1026.05
2017-03-24T13:25:19.156Z,1026.08
2017-03-24T13:26:28.204Z,1026.06
2017-03-24T13:27:37.172Z,1026.04
2017-03-24T13:28:46.415Z,1025.99
2017-03-24T13:29:55.375Z,1026.04
2017-03-24T13:31:04.751Z,1026.06
2017-03-24T13:32:13.720Z,1026.07
2017-03-24T13:33:22.677Z,1026.1
2017-03-24T13:34:31.938Z,1026.06
2017-03-24T13:35:40.898Z,1026.01
2017-03-24T13:36:49.853Z,1026.04
2017-03-24T13:37:58.817Z,1026.02
2017-03-24T13:39:07.778Z,1025.99
2017-03-24T13:40:17.047Z,1026.02
2017-03-24T13:41:26.012Z,1025.95
2017-03-24T13:42:34.984Z,1025.96
2017-03-24T13:43:43.950Z,1026
2017-03-24T13:44:52.917Z,1025.99
2017-03-24T13:46:02.178Z,1026.01
2017-03-24T13:47:11.144Z,1026
2017-03-24T13:48:20.194Z,1026
2017-03-24T13:49:29.154Z,1026
2017-03-24T13:50:38.119Z,1025.95
2017-03-24T13:51:47.377Z,1025.96
2017-03-24T13:52:56.343Z,1025.94
2017-03-24T13:54:05.304Z,1025.93
2017-03-24T13:55:14.263Z,1025.91
2017-03-24T13:56:23.221Z,1025.88
2017-03-24T13:57:32.767Z,1025.9
2017-03-24T13:58:41.732Z,1025.88
2017-03-24T13:59:50.695Z,1025.87